createdAt,value
2023-04-20T00:01:38.976Z,7.97
2023-04-20T00:04:42.751Z,8.83
2023-04-20T00:07:48.850Z,8.17
2023-04-20T00:10:52.552Z,8.70
2023-04-20T00:13:56.145Z,9.00
2023-04-20T00:16:59.844Z,9.50
2023-04-20T00:20:04.072Z,9.33
2023-04-20T00:23:09.208Z,8.60
2023-04-20T00:26:12.740Z,8.70
2023-04-20T00:29:18.280Z,7.83
2023-04-20T00:32:21.971Z,8.13
2023-04-20T00:35:25.798Z,8.30
2023-04-20T00:38:30.991Z,8.30
2023-04-20T00:41:36.275Z,8.27
2023-04-20T00:44:39.902Z,10.27
2023-04-20T00:47:43.883Z,10.97
2023-04-20T00:50:48.199Z,10.83
2023-04-20T00:53:53.264Z,11.70
2023-04-20T00:56:58.095Z,11.27
2023-04-20T01:00:02.023Z,12.70
2023-04-20T01:03:06.388Z,11.57
2023-04-20T01:06:11.188Z,11.80
2023-04-20T01:09:16.435Z,11.20
2023-04-20T01:12:21.348Z,10.80
2023-04-20T01:15:25.010Z,11.53
2023-04-20T01:18:28.510Z,10.53
2023-04-20T01:21:33.697Z,11.07
2023-04-20T01:24:38.580Z,10.33
2023-04-20T01:27:42.233Z,9.53
2023-04-20T01:30:45.778Z,9.77
2023-04-20T01:33:49.402Z,8.97
2023-04-20T01:36:53.038Z,8.97
2023-04-20T01:39:58.472Z,9.10
2023-04-20T01:43:01.984Z,8.77
2023-04-20T01:46:06.236Z,7.90
2023-04-20T01:49:10.628Z,8.47
2023-04-20T01:52:14.208Z,7.60
2023-04-20T01:55:20.235Z,8.37
2023-04-20T01:58:23.941Z,7.17
2023-04-20T02:01:27.614Z,8.07
2023-04-20T02:04:31.381Z,8.67
2023-04-20T02:07:34.941Z,9.00
2023-04-20T02:10:40.027Z,8.83
2023-04-20T02:13:45.727Z,8.20
2023-04-20T02:16:49.397Z,8.77
2023-04-20T02:19:52.958Z,8.77
2023-04-20T02:22:56.598Z,7.80
2023-04-20T02:26:01.561Z,8.43
2023-04-20T02:29:05.134Z,8.47
2023-04-20T02:32:10.982Z,8.07
2023-04-20T02:35:14.633Z,8.70
2023-04-20T02:38:19.420Z,9.13
2023-04-20T02:41:24.938Z,8.40
2023-04-20T02:44:28.547Z,8.53
2023-04-20T02:47:32.333Z,8.33
2023-04-20T02:50:38.133Z,8.93
2023-04-20T02:53:57.426Z,8.37
2023-04-20T02:57:07.288Z,8.00
2023-04-20T03:00:13.705Z,8.63
2023-04-20T03:03:35.803Z,8.57
2023-04-20T03:06:40.875Z,8.23
2023-04-20T03:09:47.485Z,8.67
2023-04-20T03:13:21.903Z,8.40
2023-04-20T03:16:37.998Z,8.40
2023-04-20T03:19:42.114Z,9.27
2023-04-20T03:22:45.823Z,8.70
2023-04-20T03:25:49.686Z,8.77
2023-04-20T03:29:17.831Z,9.57
2023-04-20T03:32:22.548Z,9.73
2023-04-20T03:35:26.225Z,9.80
2023-04-20T03:38:30.109Z,9.90
2023-04-20T03:41:33.634Z,9.90
2023-04-20T03:44:38.585Z,10.00
2023-04-20T03:47:42.695Z,9.57
2023-04-20T03:50:46.329Z,9.30
2023-04-20T03:53:49.974Z,9.23
2023-04-20T03:56:53.747Z,9.10
2023-04-20T03:59:59.862Z,8.50
2023-04-20T04:03:10.565Z,9.77
2023-04-20T04:06:14.385Z,9.57
2023-04-20T04:09:18.729Z,9.30
2023-04-20T04:12:22.578Z,8.77
2023-04-20T04:15:28.809Z,8.60
2023-04-20T04:18:44.821Z,8.60
2023-04-20T04:21:48.534Z,8.50
2023-04-20T04:24:54.565Z,8.73
2023-04-20T04:27:58.233Z,8.13
2023-04-20T04:31:06.613Z,9.37
2023-04-20T04:34:12.565Z,8.70
2023-04-20T04:37:28.346Z,9.13
2023-04-20T04:40:33.874Z,8.97
2023-04-20T04:43:39.708Z,9.27
2023-04-20T04:46:57.964Z,9.00
2023-04-20T04:50:06.074Z,9.50
2023-04-20T04:53:09.920Z,9.60
2023-04-20T04:56:14.588Z,9.47
2023-04-20T04:59:18.411Z,11.10
2023-04-20T05:02:23.790Z,9.27
2023-04-20T05:05:27.526Z,9.90
2023-04-20T05:08:31.239Z,9.10
2023-04-20T05:11:34.949Z,10.17
2023-04-20T05:14:38.958Z,9.47
2023-04-20T05:17:44.440Z,9.53
2023-04-20T05:20:48.137Z,9.20
2023-04-20T05:23:51.858Z,9.97
2023-04-20T05:26:55.604Z,9.93
2023-04-20T05:30:09.496Z,9.33
2023-04-20T05:33:24.600Z,9.20
2023-04-20T05:36:29.734Z,9.70
2023-04-20T05:39:33.449Z,8.27
2023-04-20T05:42:37.023Z,8.63
2023-04-20T05:45:40.808Z,8.17
2023-04-20T05:48:46.256Z,8.20
2023-04-20T05:51:50.002Z,7.40
2023-04-20T05:54:54.492Z,7.13
2023-04-20T05:57:58.616Z,7.50
2023-04-20T06:01:02.833Z,7.23
2023-04-20T06:04:08.219Z,6.97
2023-04-20T06:07:11.960Z,7.13
2023-04-20T06:10:15.868Z,7.67
2023-04-20T06:13:19.584Z,7.10
2023-04-20T06:16:23.288Z,6.57
2023-04-20T06:19:28.589Z,7.00
2023-04-20T06:22:32.325Z,6.93
2023-04-20T06:25:37.829Z,6.90
2023-04-20T06:28:41.877Z,7.50
2023-04-20T06:31:45.743Z,7.27
2023-04-20T06:34:52.644Z,7.43
2023-04-20T06:37:57.881Z,6.63
2023-04-20T06:41:02.952Z,8.03
2023-04-20T06:44:06.691Z,6.90
2023-04-20T06:47:10.437Z,8.20
2023-04-20T06:50:15.722Z,7.50
2023-04-20T06:53:19.425Z,6.70
2023-04-20T06:56:23.363Z,6.10
2023-04-20T06:59:27.021Z,7.10
2023-04-20T07:02:30.906Z,7.23
2023-04-20T07:05:37.985Z,7.50
2023-04-20T07:08:41.813Z,7.57
2023-04-20T07:11:45.579Z,5.53
2023-04-20T07:14:49.288Z,6.43
2023-04-20T07:17:52.952Z,5.97
2023-04-20T07:20:58.114Z,6.80
2023-04-20T07:24:01.793Z,7.43
2023-04-20T07:27:05.970Z,6.80
2023-04-20T07:30:11.398Z,7.27
2023-04-20T07:33:15.244Z,7.20
2023-04-20T07:36:21.925Z,7.50
2023-04-20T07:39:28.794Z,6.57
2023-04-20T07:42:34.252Z,8.03
2023-04-20T07:45:41.755Z,6.73
2023-04-20T07:48:45.610Z,8.50
2023-04-20T07:51:50.739Z,8.10
2023-04-20T07:54:54.893Z,7.80
2023-04-20T07:57:58.866Z,8.20
2023-04-20T08:01:02.507Z,7.50
2023-04-20T08:04:06.901Z,7.33
2023-04-20T08:07:12.595Z,7.20
2023-04-20T08:10:16.439Z,5.57
2023-04-20T08:13:20.280Z,7.87
2023-04-20T08:16:24.138Z,7.80
2023-04-20T08:19:27.858Z,8.00
2023-04-20T08:22:33.788Z,7.23
2023-04-20T08:25:40.575Z,7.67
2023-04-20T08:28:45.396Z,8.57
2023-04-20T08:31:51.325Z,7.33
2023-04-20T08:34:57.131Z,7.30
2023-04-20T08:38:02.592Z,7.63
2023-04-20T08:41:06.655Z,8.40
2023-04-20T08:44:10.324Z,7.57
2023-04-20T08:47:16.570Z,6.93
2023-04-20T08:50:21.100Z,8.20
2023-04-20T08:53:26.354Z,7.45
2023-04-20T08:56:37.251Z,7.23
2023-04-20T08:59:41.339Z,6.78
2023-04-20T09:02:56.238Z,7.25
2023-04-20T09:06:00.137Z,7.18
2023-04-20T09:09:11.904Z,6.88
2023-04-20T09:12:15.539Z,8.07
2023-04-20T09:15:29.325Z,8.15
2023-04-20T09:18:33.086Z,6.88
2023-04-20T09:21:36.905Z,6.97
2023-04-20T09:24:43.726Z,6.82
2023-04-20T09:27:57.249Z,7.45
2023-04-20T09:31:01.528Z,6.15
2023-04-20T09:34:05.936Z,6.60
2023-04-20T09:37:11.809Z,6.43
2023-04-20T09:40:18.012Z,6.75
2023-04-20T09:43:25.802Z,6.30
2023-04-20T09:46:32.788Z,7.15
2023-04-20T09:49:36.883Z,7.20
2023-04-20T09:52:42.311Z,6.57
2023-04-20T09:55:49.801Z,7.75
2023-04-20T09:58:54.219Z,5.90
2023-04-20T10:01:57.929Z,5.65
2023-04-20T10:05:02.272Z,6.15
2023-04-20T10:08:06.494Z,6.03
2023-04-20T10:11:11.990Z,5.85
2023-04-20T10:14:20.505Z,6.07
2023-04-20T10:17:31.635Z,6.35
2023-04-20T10:20:35.489Z,6.72
2023-04-20T10:23:49.705Z,5.82
2023-04-20T10:26:54.845Z,5.10
2023-04-20T10:29:58.585Z,5.90
2023-04-20T10:33:06.759Z,6.13
2023-04-20T10:36:10.499Z,6.70
2023-04-20T10:39:19.776Z,6.22
2023-04-20T10:42:26.678Z,5.47
2023-04-20T10:45:40.471Z,5.30
2023-04-20T10:48:52.792Z,5.53
2023-04-20T10:51:57.515Z,6.05
2023-04-20T10:55:01.361Z,6.18
2023-04-20T10:58:06.724Z,6.22
2023-04-20T11:01:10.518Z,6.70
2023-04-20T11:04:18.308Z,7.80
2023-04-20T11:07:22.284Z,6.88
2023-04-20T11:10:38.255Z,7.38
2023-04-20T11:13:43.584Z,6.90
2023-04-20T11:16:54.522Z,7.00
2023-04-20T11:20:09.466Z,8.98
2023-04-20T11:23:13.353Z,6.63
2023-04-20T11:26:17.407Z,8.00
2023-04-20T11:29:36.147Z,7.47
2023-04-20T11:32:40.142Z,7.23
2023-04-20T11:35:44.603Z,6.00
2023-04-20T11:38:48.321Z,6.20
2023-04-20T11:41:52.542Z,7.10
2023-04-20T11:44:57.832Z,8.30
2023-04-20T11:48:01.622Z,9.00
2023-04-20T11:51:05.412Z,9.00
2023-04-20T11:54:09.184Z,8.77
2023-04-20T11:57:13.330Z,7.97
2023-04-20T12:00:19.793Z,8.05
2023-04-20T12:03:24.579Z,8.07
2023-04-20T12:06:29.001Z,7.20
2023-04-20T12:09:36.340Z,6.78
2023-04-20T12:12:42.303Z,6.82
2023-04-20T12:15:47.539Z,5.90
2023-04-20T12:18:51.385Z,6.35
2023-04-20T12:21:55.233Z,5.88
2023-04-20T12:24:58.957Z,5.18
2023-04-20T12:28:07.020Z,5.45
2023-04-20T12:31:12.411Z,5.97
2023-04-20T12:34:16.357Z,6.15
2023-04-20T12:37:20.907Z,6.15
2023-04-20T12:40:24.950Z,5.43
2023-04-20T12:43:28.899Z,6.40
2023-04-20T12:46:34.134Z,6.22
2023-04-20T12:49:37.901Z,5.40
2023-04-20T12:52:41.835Z,5.35
2023-04-20T12:55:45.462Z,4.95
2023-04-20T12:58:49.168Z,5.38
2023-04-20T13:01:54.467Z,5.07
2023-04-20T13:04:58.226Z,5.72
2023-04-20T13:08:01.973Z,5.25
2023-04-20T13:11:06.700Z,5.20
2023-04-20T13:14:10.313Z,4.78
2023-04-20T13:17:15.526Z,5.40
2023-04-20T13:20:19.232Z,3.88
2023-04-20T13:23:23.694Z,4.07
2023-04-20T13:26:27.739Z,4.15
2023-04-20T13:29:31.808Z,3.53
2023-04-20T13:32:38.843Z,3.65
2023-04-20T13:35:43.473Z,4.60
2023-04-20T13:38:47.570Z,4.18
2023-04-20T13:41:51.318Z,4.20
2023-04-20T13:44:55.047Z,4.32
2023-04-20T13:48:00.254Z,3.45
2023-04-20T13:51:04.051Z,4.22
2023-04-20T13:54:08.275Z,4.60
2023-04-20T13:57:12.046Z,5.10
2023-04-20T14:00:16.360Z,4.70
2023-04-20T14:03:21.762Z,5.30
2023-04-20T14:06:25.758Z,5.22
2023-04-20T14:09:29.895Z,4.60
2023-04-20T14:12:34.382Z,4.60
2023-04-20T14:15:38.303Z,4.95
2023-04-20T14:18:43.859Z,4.60
2023-04-20T14:21:47.879Z,4.82
2023-04-20T14:24:51.762Z,4.53
2023-04-20T14:27:55.604Z,4.10
2023-04-20T14:31:01.103Z,3.97
2023-04-20T14:34:06.469Z,4.15
2023-04-20T14:37:10.404Z,4.10
2023-04-20T14:40:14.612Z,3.97
2023-04-20T14:43:18.480Z,3.83
2023-04-20T14:46:22.222Z,4.88
2023-04-20T14:49:27.592Z,4.57
2023-04-20T14:52:31.384Z,4.85
2023-04-20T14:55:35.221Z,4.32
2023-04-20T14:58:40.493Z,4.50
2023-04-20T15:01:55.154Z,4.28
2023-04-20T15:05:10.243Z,4.30
2023-04-20T15:08:14.948Z,4.15
2023-04-20T15:11:18.802Z,4.15
2023-04-20T15:14:22.554Z,4.43
2023-04-20T15:17:26.606Z,4.05
2023-04-20T15:20:31.891Z,4.50
2023-04-20T15:23:35.741Z,5.10
2023-04-20T15:26:39.654Z,5.13
2023-04-20T15:29:43.502Z,4.75
2023-04-20T15:32:47.454Z,5.43
2023-04-20T15:35:52.752Z,5.13
2023-04-20T15:38:57.992Z,4.67
2023-04-20T15:42:03.223Z,4.68
2023-04-20T15:45:08.674Z,4.53
2023-04-20T15:48:12.544Z,4.43
2023-04-20T15:51:19.380Z,5.00
2023-04-20T15:54:23.948Z,4.47
2023-04-20T15:57:27.862Z,4.43
2023-04-20T16:00:31.753Z,4.90
2023-04-20T16:03:35.802Z,4.80
2023-04-20T16:06:42.031Z,4.78
2023-04-20T16:09:45.981Z,3.92
2023-04-20T16:12:49.814Z,4.97
2023-04-20T16:15:53.927Z,4.50
2023-04-20T16:18:57.840Z,4.43
2023-04-20T16:22:03.002Z,3.70
2023-04-20T16:25:07.859Z,4.23
2023-04-20T16:28:11.649Z,4.20
2023-04-20T16:31:16.045Z,4.23
2023-04-20T16:34:20.537Z,4.17
2023-04-20T16:37:26.106Z,5.10
2023-04-20T16:40:30.023Z,4.37
2023-04-20T16:43:33.843Z,4.60
2023-04-20T16:46:37.707Z,4.53
2023-04-20T16:49:41.566Z,4.57
2023-04-20T16:52:46.755Z,4.90
2023-04-20T16:55:50.694Z,4.90
2023-04-20T16:58:54.555Z,4.93
2023-04-20T17:01:58.415Z,4.83
2023-04-20T17:05:02.378Z,5.53
2023-04-20T17:08:08.013Z,4.90
2023-04-20T17:11:11.832Z,4.27
2023-04-20T17:14:16.327Z,5.13
2023-04-20T17:17:20.186Z,4.60
2023-04-20T17:20:23.977Z,4.93
2023-04-20T17:23:29.907Z,4.77
2023-04-20T17:26:33.721Z,4.53
2023-04-20T17:29:38.727Z,4.60
2023-04-20T17:32:42.807Z,4.20
2023-04-20T17:35:46.735Z,4.50
2023-04-20T17:38:51.909Z,4.57
2023-04-20T17:41:55.692Z,5.30
2023-04-20T17:44:59.333Z,5.07
2023-04-20T17:48:03.154Z,5.37
2023-04-20T17:51:06.875Z,4.57
2023-04-20T17:54:12.094Z,4.83
2023-04-20T17:57:15.791Z,4.87
2023-04-20T18:00:20.716Z,4.60
2023-04-20T18:03:24.466Z,4.67
2023-04-20T18:06:28.373Z,4.20
2023-04-20T18:09:33.498Z,4.47
2023-04-20T18:12:37.246Z,4.70
2023-04-20T18:15:41.331Z,4.87
2023-04-20T18:18:45.110Z,4.73
2023-04-20T18:21:48.932Z,4.60
2023-04-20T18:24:54.492Z,4.50
2023-04-20T18:27:58.225Z,4.50
2023-04-20T18:31:02.711Z,4.63
2023-04-20T18:34:07.829Z,4.50
2023-04-20T18:37:14.294Z,4.50
2023-04-20T18:40:19.516Z,4.47
2023-04-20T18:43:23.302Z,4.80
2023-04-20T18:46:27.221Z,4.87
2023-04-20T18:49:32.190Z,4.50
2023-04-20T18:52:36.142Z,4.07
2023-04-20T18:55:41.596Z,4.20
2023-04-20T18:58:45.483Z,4.30
2023-04-20T19:01:50.147Z,4.70
2023-04-20T19:04:54.122Z,4.00
2023-04-20T19:07:57.915Z,4.53
2023-04-20T19:11:03.103Z,4.90
2023-04-20T19:14:06.933Z,5.00
2023-04-20T19:17:10.620Z,4.60
2023-04-20T19:20:14.645Z,4.40
2023-04-20T19:23:18.304Z,4.73
2023-04-20T19:26:24.371Z,4.73
2023-04-20T19:29:28.211Z,4.67
2023-04-20T19:32:31.983Z,4.80
2023-04-20T19:35:35.716Z,4.63
2023-04-20T19:38:39.453Z,4.60
2023-04-20T19:41:44.893Z,4.73
2023-04-20T19:44:48.854Z,5.47
2023-04-20T19:47:53.188Z,5.13
2023-04-20T19:50:58.040Z,5.03
2023-04-20T19:54:03.764Z,5.77
2023-04-20T19:57:09.093Z,5.20
2023-04-20T20:00:14.276Z,5.10
2023-04-20T20:03:18.592Z,5.37
2023-04-20T20:06:23.802Z,5.30
2023-04-20T20:09:27.778Z,5.00
2023-04-20T20:12:32.982Z,5.63
2023-04-20T20:15:37.678Z,5.00
2023-04-20T20:18:41.955Z,5.80
2023-04-20T20:21:45.591Z,4.80
2023-04-20T20:24:51.388Z,5.00
2023-04-20T20:27:56.680Z,5.20
2023-04-20T20:31:00.774Z,5.07
2023-04-20T20:34:04.525Z,5.50
2023-04-20T20:37:10.576Z,5.90
2023-04-20T20:40:15.509Z,6.07
2023-04-20T20:43:20.682Z,5.50
2023-04-20T20:46:24.353Z,5.90
2023-04-20T20:49:28.104Z,5.70
2023-04-20T20:52:31.807Z,6.03
2023-04-20T20:55:35.540Z,6.33
2023-04-20T20:58:40.697Z,6.40
2023-04-20T21:01:44.431Z,5.90
2023-04-20T21:04:48.178Z,6.40
2023-04-20T21:07:51.890Z,6.00
2023-04-20T21:10:55.662Z,6.07
2023-04-20T21:14:02.972Z,7.17
2023-04-20T21:17:06.823Z,6.07
2023-04-20T21:20:11.811Z,6.83
2023-04-20T21:23:16.133Z,6.97
2023-04-20T21:26:19.792Z,6.60
2023-04-20T21:29:24.893Z,6.30
2023-04-20T21:32:28.651Z,7.13
2023-04-20T21:35:32.451Z,5.97
2023-04-20T21:38:36.483Z,6.70
2023-04-20T21:41:40.767Z,6.63
2023-04-20T21:44:45.889Z,7.83
2023-04-20T21:47:49.590Z,7.40
2023-04-20T21:50:53.308Z,7.87
2023-04-20T21:53:56.971Z,7.13
2023-04-20T21:57:00.655Z,5.80
2023-04-20T22:00:06.519Z,5.20
2023-04-20T22:03:18.348Z,4.97
2023-04-20T22:06:22.315Z,4.43
2023-04-20T22:09:26.177Z,4.63
2023-04-20T22:12:39.329Z,4.83
2023-04-20T22:15:47.388Z,5.13
2023-04-20T22:18:51.891Z,4.60
2023-04-20T22:21:55.571Z,4.63
2023-04-20T22:24:59.268Z,6.03
2023-04-20T22:28:02.979Z,5.23
2023-04-20T22:31:08.258Z,5.03
2023-04-20T22:34:11.976Z,4.80
2023-04-20T22:37:16.843Z,4.67
2023-04-20T22:40:20.512Z,4.67
2023-04-20T22:43:24.506Z,4.63
2023-04-20T22:46:29.742Z,5.00
2023-04-20T22:49:33.576Z,4.80
2023-04-20T22:52:38.765Z,5.10
2023-04-20T22:55:42.422Z,5.10
2023-04-20T22:58:46.049Z,5.60
2023-04-20T23:01:51.126Z,5.83
2023-04-20T23:04:54.908Z,6.27
2023-04-20T23:08:00.728Z,6.53
2023-04-20T23:11:04.946Z,6.57
2023-04-20T23:14:09.235Z,6.93
2023-04-20T23:17:14.285Z,6.77
2023-04-20T23:20:17.965Z,6.70
2023-04-20T23:23:21.668Z,6.90
2023-04-20T23:26:25.755Z,6.40
2023-04-20T23:29:30.206Z,7.00
2023-04-20T23:32:35.849Z,6.53
2023-04-20T23:35:39.500Z,6.77
2023-04-20T23:38:43.364Z,6.50
2023-04-20T23:41:47.197Z,7.13
2023-04-20T23:44:50.739Z,6.57
2023-04-20T23:47:56.066Z,6.17
2023-04-20T23:50:59.805Z,7.43
2023-04-20T23:54:03.694Z,7.40
2023-04-20T23:57:07.345Z,7.60
